map of SUAA home
SUAA - Airport
Location
City:  Montevideo, Montevideo, Uruguay
Name:Ángel S. Adami Airport
ICAO:SUAA

Details
Type:Airport (Aerodrome, Airfield)
Use:Public/Civil
Latitude:34°47'21"S (-34.789207)
Longitude:56°15'53"W (-56.264702)
Datum:WGS 1984
Elevation:174 ft (53 m)
Variation:10.80°W (WMM2015 magnetic declination)
-0.16° annual change
Runways:1
Longest:4101 × 75 ft (1250 × 23 m), paved

Time
Time Zone:UTC-3
Local Time:

Weather
METAR:SUAA 161900Z 10010KT CAVOK 20/09 Q1018
TAF:SUAA 161730Z 1618/1718 13015KT CAVOK TX27/1718Z TN14/1710Z
BECMG 1700/1702 05015G25KT
BECMG 1714/1716 9999 SCT015 BKN070

Related Locations
Nearby:
Farthest:MPK: 12294 mi / 19785 km
Mokpo, KR

Find:

   beyond  
but within

Other Information
Maps:
NOTAMs:
Links:
Sources:

  
  • flag of Uruguay
  

Sectional Chart

Flight Planning
at skyvector.com

Satellite Image

Google Maps Satellite view

 

Copyright © 2004-2018 Karl L. Swartz. All rights reserved.
The Great Circle Mapper name and logo are trademarks of the Great Circle Mapper.
All other trademarks mentioned herein belong to their respective owners.
Please see credits for attibutions and further copyright information.

  Follow gcmap on Facebook Follow gcmap on Twitter Follow gcmap on Google+ GCmap on LinkedIn

hCard Microformat

Geo Microformat